sensor_id;sensor_type;location;lat;lon;timestamp;P1;durP1;ratioP1;P2;durP2;ratioP2
55037;SDS011;40937;53.594;10.034;2023-11-19T00:00:06;8.73;;;7.93;;
55037;SDS011;40937;53.594;10.034;2023-11-19T00:02:37;8.18;;;7.43;;
55037;SDS011;40937;53.594;10.034;2023-11-19T00:05:04;9.38;;;8.50;;
55037;SDS011;40937;53.594;10.034;2023-11-19T00:07:36;7.53;;;6.93;;
55037;SDS011;40937;53.594;10.034;2023-11-19T00:10:07;7.43;;;6.82;;
55037;SDS011;40937;53.594;10.034;2023-11-19T00:12:36;7.45;;;6.95;;
55037;SDS011;40937;53.594;10.034;2023-11-19T00:15:04;7.78;;;7.07;;
55037;SDS011;40937;53.594;10.034;2023-11-19T00:17:32;7.95;;;7.35;;
55037;SDS011;40937;53.594;10.034;2023-11-19T00:19:59;6.40;;;6.00;;
55037;SDS011;40937;53.594;10.034;2023-11-19T00:22:26;6.05;;;5.65;;
55037;SDS011;40937;53.594;10.034;2023-11-19T00:24:55;6.60;;;6.13;;
55037;SDS011;40937;53.594;10.034;2023-11-19T00:27:22;6.72;;;6.20;;
55037;SDS011;40937;53.594;10.034;2023-11-19T00:29:49;5.90;;;5.50;;
55037;SDS011;40937;53.594;10.034;2023-11-19T00:32:16;5.00;;;4.70;;
55037;SDS011;40937;53.594;10.034;2023-11-19T00:34:44;5.72;;;5.22;;
55037;SDS011;40937;53.594;10.034;2023-11-19T00:37:13;4.45;;;4.22;;
55037;SDS011;40937;53.594;10.034;2023-11-19T00:39:40;4.97;;;4.60;;
55037;SDS011;40937;53.594;10.034;2023-11-19T00:42:10;5.07;;;4.53;;
55037;SDS011;40937;53.594;10.034;2023-11-19T00:44:38;5.35;;;4.88;;
55037;SDS011;40937;53.594;10.034;2023-11-19T00:47:05;4.15;;;3.85;;
55037;SDS011;40937;53.594;10.034;2023-11-19T00:49:32;4.50;;;4.15;;
55037;SDS011;40937;53.594;10.034;2023-11-19T00:52:00;4.72;;;4.35;;
55037;SDS011;40937;53.594;10.034;2023-11-19T00:54:28;4.18;;;3.67;;
55037;SDS011;40937;53.594;10.034;2023-11-19T00:56:55;3.67;;;3.47;;
55037;SDS011;40937;53.594;10.034;2023-11-19T00:59:24;3.90;;;3.70;;
55037;SDS011;40937;53.594;10.034;2023-11-19T01:01:51;4.05;;;3.75;;
55037;SDS011;40937;53.594;10.034;2023-11-19T01:04:18;4.00;;;3.70;;
55037;SDS011;40937;53.594;10.034;2023-11-19T01:06:46;4.40;;;4.10;;
55037;SDS011;40937;53.594;10.034;2023-11-19T01:09:13;4.03;;;3.83;;
55037;SDS011;40937;53.594;10.034;2023-11-19T01:11:40;3.83;;;3.53;;
55037;SDS011;40937;53.594;10.034;2023-11-19T01:14:07;3.60;;;3.40;;
55037;SDS011;40937;53.594;10.034;2023-11-19T01:16:37;3.60;;;3.40;;
55037;SDS011;40937;53.594;10.034;2023-11-19T01:19:04;3.10;;;2.90;;
55037;SDS011;40937;53.594;10.034;2023-11-19T01:21:31;3.15;;;2.95;;
55037;SDS011;40937;53.594;10.034;2023-11-19T01:23:58;3.05;;;2.85;;
55037;SDS011;40937;53.594;10.034;2023-11-19T01:26:26;5.93;;;3.05;;
55037;SDS011;40937;53.594;10.034;2023-11-19T01:28:53;3.08;;;2.78;;
55037;SDS011;40937;53.594;10.034;2023-11-19T01:31:20;3.25;;;2.95;;
55037;SDS011;40937;53.594;10.034;2023-11-19T01:33:49;2.70;;;2.55;;
55037;SDS011;40937;53.594;10.034;2023-11-19T01:36:16;2.33;;;2.22;;
55037;SDS011;40937;53.594;10.034;2023-11-19T01:38:43;2.28;;;2.17;;
55037;SDS011;40937;53.594;10.034;2023-11-19T01:41:10;2.25;;;2.15;;
55037;SDS011;40937;53.594;10.034;2023-11-19T01:43:38;1.90;;;1.80;;
55037;SDS011;40937;53.594;10.034;2023-11-19T01:46:07;2.50;;;1.80;;
55037;SDS011;40937;53.594;10.034;2023-11-19T01:48:37;2.17;;;2.08;;
55037;SDS011;40937;53.594;10.034;2023-11-19T01:51:09;2.10;;;1.92;;
55037;SDS011;40937;53.594;10.034;2023-11-19T01:53:36;2.20;;;2.10;;
55037;SDS011;40937;53.594;10.034;2023-11-19T01:56:05;2.58;;;2.38;;
55037;SDS011;40937;53.594;10.034;2023-11-19T01:58:35;3.97;;;1.92;;
55037;SDS011;40937;53.594;10.034;2023-11-19T02:01:02;2.60;;;2.17;;
55037;SDS011;40937;53.594;10.034;2023-11-19T02:03:30;2.08;;;1.98;;
55037;SDS011;40937;53.594;10.034;2023-11-19T02:05:58;2.15;;;1.95;;
55037;SDS011;40937;53.594;10.034;2023-11-19T02:08:27;1.67;;;1.58;;
55037;SDS011;40937;53.594;10.034;2023-11-19T02:10:55;1.90;;;1.80;;
55037;SDS011;40937;53.594;10.034;2023-11-19T02:13:23;1.70;;;1.60;;
55037;SDS011;40937;53.594;10.034;2023-11-19T02:15:51;1.90;;;1.80;;
55037;SDS011;40937;53.594;10.034;2023-11-19T02:18:19;1.90;;;1.80;;
55037;SDS011;40937;53.594;10.034;2023-11-19T02:20:48;1.42;;;1.42;;
55037;SDS011;40937;53.594;10.034;2023-11-19T02:23:16;1.40;;;1.40;;
55037;SDS011;40937;53.594;10.034;2023-11-19T02:25:47;1.30;;;1.27;;
55037;SDS011;40937;53.594;10.034;2023-11-19T02:28:24;1.30;;;1.30;;
55037;SDS011;40937;53.594;10.034;2023-11-19T02:30:52;1.38;;;1.38;;
55037;SDS011;40937;53.594;10.034;2023-11-19T02:33:19;1.60;;;1.50;;
55037;SDS011;40937;53.594;10.034;2023-11-19T02:35:47;1.65;;;1.55;;
55037;SDS011;40937;53.594;10.034;2023-11-19T02:38:14;1.35;;;1.33;;
55037;SDS011;40937;53.594;10.034;2023-11-19T02:40:41;1.33;;;1.33;;
55037;SDS011;40937;53.594;10.034;2023-11-19T02:43:08;1.63;;;1.52;;
55037;SDS011;40937;53.594;10.034;2023-11-19T02:45:37;1.23;;;1.23;;
55037;SDS011;40937;53.594;10.034;2023-11-19T02:48:04;1.98;;;1.40;;
55037;SDS011;40937;53.594;10.034;2023-11-19T02:50:33;1.63;;;1.52;;
55037;SDS011;40937;53.594;10.034;2023-11-19T02:53:01;1.30;;;1.30;;
55037;SDS011;40937;53.594;10.034;2023-11-19T02:55:28;1.10;;;1.10;;
55037;SDS011;40937;53.594;10.034;2023-11-19T02:58:00;1.00;;;1.00;;
55037;SDS011;40937;53.594;10.034;2023-11-19T03:00:30;1.35;;;1.30;;
55037;SDS011;40937;53.594;10.034;2023-11-19T03:03:03;2.17;;;1.77;;
55037;SDS011;40937;53.594;10.034;2023-11-19T03:05:43;1.10;;;1.10;;
55037;SDS011;40937;53.594;10.034;2023-11-19T03:08:12;1.38;;;1.38;;
55037;SDS011;40937;53.594;10.034;2023-11-19T03:10:39;3.15;;;1.50;;
55037;SDS011;40937;53.594;10.034;2023-11-19T03:13:07;1.15;;;1.15;;
55037;SDS011;40937;53.594;10.034;2023-11-19T03:15:39;1.30;;;1.30;;
55037;SDS011;40937;53.594;10.034;2023-11-19T03:18:08;1.58;;;1.50;;
55037;SDS011;40937;53.594;10.034;2023-11-19T03:20:35;1.65;;;1.65;;
55037;SDS011;40937;53.594;10.034;2023-11-19T03:23:02;1.58;;;1.48;;
55037;SDS011;40937;53.594;10.034;2023-11-19T03:25:29;1.30;;;1.23;;
55037;SDS011;40937;53.594;10.034;2023-11-19T03:28:00;1.60;;;1.50;;
55037;SDS011;40937;53.594;10.034;2023-11-19T03:30:29;1.90;;;1.50;;
55037;SDS011;40937;53.594;10.034;2023-11-19T03:32:58;1.85;;;1.52;;
55037;SDS011;40937;53.594;10.034;2023-11-19T03:35:30;1.48;;;1.30;;
55037;SDS011;40937;53.594;10.034;2023-11-19T03:37:58;2.17;;;1.40;;
55037;SDS011;40937;53.594;10.034;2023-11-19T03:40:28;1.40;;;1.30;;
55037;SDS011;40937;53.594;10.034;2023-11-19T03:42:56;1.60;;;1.50;;
55037;SDS011;40937;53.594;10.034;2023-11-19T03:45:26;1.05;;;1.05;;
55037;SDS011;40937;53.594;10.034;2023-11-19T03:47:54;1.20;;;1.20;;
55037;SDS011;40937;53.594;10.034;2023-11-19T03:50:23;16.23;;;1.48;;
55037;SDS011;40937;53.594;10.034;2023-11-19T03:52:52;1.10;;;1.10;;
55037;SDS011;40937;53.594;10.034;2023-11-19T03:55:22;2.47;;;1.30;;
55037;SDS011;40937;53.594;10.034;2023-11-19T03:57:50;1.60;;;1.50;;
55037;SDS011;40937;53.594;10.034;2023-11-19T04:00:18;1.45;;;1.35;;
55037;SDS011;40937;53.594;10.034;2023-11-19T04:02:49;1.95;;;1.58;;
55037;SDS011;40937;53.594;10.034;2023-11-19T04:07:50;1.80;;;1.70;;
55037;SDS011;40937;53.594;10.034;2023-11-19T04:10:19;1.88;;;1.70;;
55037;SDS011;40937;53.594;10.034;2023-11-19T04:12:51;1.58;;;1.23;;
55037;SDS011;40937;53.594;10.034;2023-11-19T04:15:19;3.45;;;1.77;;
55037;SDS011;40937;53.594;10.034;2023-11-19T04:17:46;2.20;;;2.10;;
55037;SDS011;40937;53.594;10.034;2023-11-19T04:20:14;1.75;;;1.63;;
55037;SDS011;40937;53.594;10.034;2023-11-19T04:22:41;1.95;;;1.85;;
55037;SDS011;40937;53.594;10.034;2023-11-19T04:25:22;1.95;;;1.85;;
55037;SDS011;40937;53.594;10.034;2023-11-19T04:27:52;2.22;;;2.13;;
55037;SDS011;40937;53.594;10.034;2023-11-19T04:30:19;2.10;;;1.98;;
55037;SDS011;40937;53.594;10.034;2023-11-19T04:32:49;2.10;;;2.00;;
55037;SDS011;40937;53.594;10.034;2023-11-19T04:35:16;2.20;;;1.90;;
55037;SDS011;40937;53.594;10.034;2023-11-19T04:37:44;2.42;;;2.33;;
55037;SDS011;40937;53.594;10.034;2023-11-19T04:40:13;4.20;;;2.50;;
55037;SDS011;40937;53.594;10.034;2023-11-19T04:42:41;2.65;;;2.50;;
55037;SDS011;40937;53.594;10.034;2023-11-19T04:45:09;3.10;;;2.90;;
55037;SDS011;40937;53.594;10.034;2023-11-19T04:47:36;3.30;;;3.00;;
55037;SDS011;40937;53.594;10.034;2023-11-19T04:50:06;3.13;;;2.92;;
55037;SDS011;40937;53.594;10.034;2023-11-19T04:52:37;4.55;;;3.65;;
55037;SDS011;40937;53.594;10.034;2023-11-19T04:55:06;3.08;;;2.92;;
55037;SDS011;40937;53.594;10.034;2023-11-19T04:57:37;3.38;;;3.17;;
55037;SDS011;40937;53.594;10.034;2023-11-19T05:00:06;3.00;;;2.75;;
55037;SDS011;40937;53.594;10.034;2023-11-19T05:02:35;7.15;;;3.10;;
55037;SDS011;40937;53.594;10.034;2023-11-19T05:05:03;5.32;;;3.58;;
55037;SDS011;40937;53.594;10.034;2023-11-19T05:07:31;3.75;;;3.42;;
55037;SDS011;40937;53.594;10.034;2023-11-19T05:09:58;3.85;;;3.55;;
55037;SDS011;40937;53.594;10.034;2023-11-19T05:12:25;3.92;;;3.60;;
55037;SDS011;40937;53.594;10.034;2023-11-19T05:14:53;4.00;;;3.80;;
55037;SDS011;40937;53.594;10.034;2023-11-19T05:17:21;4.15;;;3.65;;
55037;SDS011;40937;53.594;10.034;2023-11-19T05:19:48;7.13;;;4.30;;
55037;SDS011;40937;53.594;10.034;2023-11-19T05:22:15;5.03;;;4.28;;
55037;SDS011;40937;53.594;10.034;2023-11-19T05:24:43;5.00;;;4.70;;
55037;SDS011;40937;53.594;10.034;2023-11-19T05:27:10;6.63;;;4.47;;
55037;SDS011;40937;53.594;10.034;2023-11-19T05:29:39;5.18;;;4.78;;
55037;SDS011;40937;53.594;10.034;2023-11-19T05:32:07;4.95;;;4.55;;
55037;SDS011;40937;53.594;10.034;2023-11-19T05:34:35;15.70;;;5.28;;
55037;SDS011;40937;53.594;10.034;2023-11-19T05:37:02;6.05;;;5.47;;
55037;SDS011;40937;53.594;10.034;2023-11-19T05:39:31;5.80;;;5.30;;
55037;SDS011;40937;53.594;10.034;2023-11-19T05:41:58;6.18;;;5.68;;
55037;SDS011;40937;53.594;10.034;2023-11-19T05:44:26;6.63;;;5.93;;
55037;SDS011;40937;53.594;10.034;2023-11-19T05:46:53;6.55;;;6.13;;
55037;SDS011;40937;53.594;10.034;2023-11-19T05:49:20;6.00;;;5.63;;
55037;SDS011;40937;53.594;10.034;2023-11-19T05:51:49;7.20;;;6.50;;
55037;SDS011;40937;53.594;10.034;2023-11-19T05:54:16;7.05;;;5.63;;
55037;SDS011;40937;53.594;10.034;2023-11-19T05:56:47;5.95;;;5.47;;
55037;SDS011;40937;53.594;10.034;2023-11-19T05:59:15;6.65;;;6.05;;
55037;SDS011;40937;53.594;10.034;2023-11-19T06:01:43;6.47;;;5.97;;
55037;SDS011;40937;53.594;10.034;2023-11-19T06:04:11;6.28;;;5.68;;
55037;SDS011;40937;53.594;10.034;2023-11-19T06:06:38;7.68;;;6.88;;
55037;SDS011;40937;53.594;10.034;2023-11-19T06:09:07;6.20;;;5.70;;
55037;SDS011;40937;53.594;10.034;2023-11-19T06:11:35;8.45;;;7.20;;
55037;SDS011;40937;53.594;10.034;2023-11-19T06:14:02;7.57;;;6.45;;
55037;SDS011;40937;53.594;10.034;2023-11-19T06:16:31;10.63;;;7.22;;
55037;SDS011;40937;53.594;10.034;2023-11-19T06:18:58;21.30;;;9.68;;
55037;SDS011;40937;53.594;10.034;2023-11-19T06:21:26;12.20;;;10.90;;
55037;SDS011;40937;53.594;10.034;2023-11-19T06:23:53;17.23;;;11.90;;
55037;SDS011;40937;53.594;10.034;2023-11-19T06:26:22;14.10;;;11.70;;
55037;SDS011;40937;53.594;10.034;2023-11-19T06:28:49;21.50;;;13.48;;
55037;SDS011;40937;53.594;10.034;2023-11-19T06:31:16;26.25;;;14.00;;
55037;SDS011;40937;53.594;10.034;2023-11-19T06:33:43;25.85;;;13.93;;
55037;SDS011;40937;53.594;10.034;2023-11-19T06:36:10;27.65;;;14.30;;
55037;SDS011;40937;53.594;10.034;2023-11-19T06:38:41;25.30;;;13.68;;
55037;SDS011;40937;53.594;10.034;2023-11-19T06:41:09;22.35;;;13.30;;
55037;SDS011;40937;53.594;10.034;2023-11-19T06:43:37;23.08;;;14.20;;
55037;SDS011;40937;53.594;10.034;2023-11-19T06:46:04;28.70;;;13.95;;
55037;SDS011;40937;53.594;10.034;2023-11-19T06:48:32;31.20;;;14.10;;
55037;SDS011;40937;53.594;10.034;2023-11-19T06:50:59;28.08;;;13.45;;
55037;SDS011;40937;53.594;10.034;2023-11-19T06:53:27;23.48;;;12.27;;
55037;SDS011;40937;53.594;10.034;2023-11-19T06:55:54;26.13;;;11.55;;
55037;SDS011;40937;53.594;10.034;2023-11-19T06:58:22;28.33;;;11.48;;
55037;SDS011;40937;53.594;10.034;2023-11-19T07:00:51;34.70;;;11.40;;
55037;SDS011;40937;53.594;10.034;2023-11-19T07:03:23;35.97;;;12.30;;
55037;SDS011;40937;53.594;10.034;2023-11-19T07:05:50;20.88;;;10.45;;
55037;SDS011;40937;53.594;10.034;2023-11-19T07:08:17;25.25;;;11.32;;
55037;SDS011;40937;53.594;10.034;2023-11-19T07:10:45;33.75;;;11.32;;
55037;SDS011;40937;53.594;10.034;2023-11-19T07:13:13;23.48;;;10.15;;
55037;SDS011;40937;53.594;10.034;2023-11-19T07:15:40;26.95;;;9.77;;
55037;SDS011;40937;53.594;10.034;2023-11-19T07:18:09;26.75;;;8.65;;
55037;SDS011;40937;53.594;10.034;2023-11-19T07:20:37;33.13;;;10.23;;
55037;SDS011;40937;53.594;10.034;2023-11-19T07:23:05;25.75;;;8.05;;
55037;SDS011;40937;53.594;10.034;2023-11-19T07:25:32;24.10;;;7.63;;
55037;SDS011;40937;53.594;10.034;2023-11-19T07:28:01;29.70;;;8.35;;
55037;SDS011;40937;53.594;10.034;2023-11-19T07:30:30;27.42;;;7.68;;
55037;SDS011;40937;53.594;10.034;2023-11-19T07:32:57;27.52;;;6.95;;
55037;SDS011;40937;53.594;10.034;2023-11-19T07:35:26;25.00;;;7.15;;
55037;SDS011;40937;53.594;10.034;2023-11-19T07:37:56;21.33;;;7.03;;
55037;SDS011;40937;53.594;10.034;2023-11-19T07:40:23;26.80;;;6.53;;
55037;SDS011;40937;53.594;10.034;2023-11-19T07:42:50;24.05;;;6.38;;
55037;SDS011;40937;53.594;10.034;2023-11-19T07:45:18;29.80;;;7.60;;
55037;SDS011;40937;53.594;10.034;2023-11-19T07:47:45;30.58;;;7.10;;
55037;SDS011;40937;53.594;10.034;2023-11-19T07:50:12;20.75;;;6.43;;
55037;SDS011;40937;53.594;10.034;2023-11-19T07:52:43;32.70;;;7.65;;
55037;SDS011;40937;53.594;10.034;2023-11-19T07:55:10;29.45;;;6.72;;
55037;SDS011;40937;53.594;10.034;2023-11-19T07:57:38;21.23;;;6.00;;
55037;SDS011;40937;53.594;10.034;2023-11-19T08:00:08;28.08;;;6.13;;
55037;SDS011;40937;53.594;10.034;2023-11-19T08:02:40;30.85;;;7.00;;
55037;SDS011;40937;53.594;10.034;2023-11-19T08:05:08;33.55;;;7.43;;
55037;SDS011;40937;53.594;10.034;2023-11-19T08:07:35;30.40;;;7.43;;
55037;SDS011;40937;53.594;10.034;2023-11-19T08:10:04;36.97;;;6.80;;
55037;SDS011;40937;53.594;10.034;2023-11-19T08:12:35;29.70;;;6.43;;
55037;SDS011;40937;53.594;10.034;2023-11-19T08:15:03;39.58;;;7.63;;
55037;SDS011;40937;53.594;10.034;2023-11-19T08:17:31;34.35;;;7.22;;
55037;SDS011;40937;53.594;10.034;2023-11-19T08:19:58;35.78;;;8.07;;
55037;SDS011;40937;53.594;10.034;2023-11-19T08:22:26;29.10;;;7.38;;
55037;SDS011;40937;53.594;10.034;2023-11-19T08:24:53;36.42;;;8.23;;
55037;SDS011;40937;53.594;10.034;2023-11-19T08:27:22;43.50;;;8.23;;
55037;SDS011;40937;53.594;10.034;2023-11-19T08:29:53;37.38;;;7.78;;
55037;SDS011;40937;53.594;10.034;2023-11-19T08:32:21;28.38;;;6.78;;
55037;SDS011;40937;53.594;10.034;2023-11-19T08:34:48;27.77;;;6.78;;
55037;SDS011;40937;53.594;10.034;2023-11-19T08:37:15;30.23;;;7.55;;
55037;SDS011;40937;53.594;10.034;2023-11-19T08:39:43;34.00;;;6.93;;
55037;SDS011;40937;53.594;10.034;2023-11-19T08:42:12;38.75;;;7.95;;
55037;SDS011;40937;53.594;10.034;2023-11-19T08:44:40;38.80;;;7.38;;
55037;SDS011;40937;53.594;10.034;2023-11-19T08:47:09;39.08;;;8.48;;
55037;SDS011;40937;53.594;10.034;2023-11-19T08:49:36;33.25;;;6.68;;
55037;SDS011;40937;53.594;10.034;2023-11-19T08:52:04;32.17;;;8.15;;
55037;SDS011;40937;53.594;10.034;2023-11-19T08:54:32;35.08;;;8.23;;
55037;SDS011;40937;53.594;10.034;2023-11-19T08:57:00;38.58;;;9.02;;
55037;SDS011;40937;53.594;10.034;2023-11-19T08:59:28;37.65;;;9.02;;
55037;SDS011;40937;53.594;10.034;2023-11-19T09:01:57;38.75;;;8.60;;
55037;SDS011;40937;53.594;10.034;2023-11-19T09:04:24;38.60;;;8.25;;
55037;SDS011;40937;53.594;10.034;2023-11-19T09:06:51;38.38;;;7.68;;
55037;SDS011;40937;53.594;10.034;2023-11-19T09:09:18;32.92;;;7.90;;
55037;SDS011;40937;53.594;10.034;2023-11-19T09:11:45;41.70;;;7.57;;
55037;SDS011;40937;53.594;10.034;2023-11-19T09:14:12;35.45;;;9.05;;
55037;SDS011;40937;53.594;10.034;2023-11-19T09:16:40;48.17;;;9.18;;
55037;SDS011;40937;53.594;10.034;2023-11-19T09:19:08;41.30;;;8.32;;
55037;SDS011;40937;53.594;10.034;2023-11-19T09:21:35;31.65;;;7.55;;
55037;SDS011;40937;53.594;10.034;2023-11-19T09:24:04;33.92;;;8.43;;
55037;SDS011;40937;53.594;10.034;2023-11-19T09:26:33;34.15;;;8.15;;
55037;SDS011;40937;53.594;10.034;2023-11-19T09:29:01;37.50;;;7.38;;
55037;SDS011;40937;53.594;10.034;2023-11-19T09:31:28;46.58;;;9.35;;
55037;SDS011;40937;53.594;10.034;2023-11-19T09:33:56;41.10;;;8.75;;
55037;SDS011;40937;53.594;10.034;2023-11-19T09:36:24;44.55;;;8.90;;
55037;SDS011;40937;53.594;10.034;2023-11-19T09:38:51;33.97;;;8.50;;
55037;SDS011;40937;53.594;10.034;2023-11-19T09:41:19;35.53;;;7.85;;
55037;SDS011;40937;53.594;10.034;2023-11-19T09:43:46;37.60;;;8.05;;
55037;SDS011;40937;53.594;10.034;2023-11-19T09:46:14;43.78;;;9.25;;
55037;SDS011;40937;53.594;10.034;2023-11-19T09:48:43;40.65;;;8.35;;
55037;SDS011;40937;53.594;10.034;2023-11-19T09:51:13;31.73;;;7.95;;
55037;SDS011;40937;53.594;10.034;2023-11-19T09:53:42;39.53;;;9.18;;
55037;SDS011;40937;53.594;10.034;2023-11-19T09:56:09;40.15;;;8.95;;
55037;SDS011;40937;53.594;10.034;2023-11-19T09:58:38;33.65;;;7.93;;
55037;SDS011;40937;53.594;10.034;2023-11-19T10:01:05;33.45;;;8.32;;
55037;SDS011;40937;53.594;10.034;2023-11-19T10:03:35;34.88;;;8.70;;
55037;SDS011;40937;53.594;10.034;2023-11-19T10:06:05;35.92;;;8.25;;
55037;SDS011;40937;53.594;10.034;2023-11-19T10:08:37;41.70;;;9.63;;
55037;SDS011;40937;53.594;10.034;2023-11-19T10:11:06;40.72;;;9.48;;
55037;SDS011;40937;53.594;10.034;2023-11-19T10:13:34;46.05;;;10.02;;
55037;SDS011;40937;53.594;10.034;2023-11-19T10:16:03;40.78;;;9.98;;
55037;SDS011;40937;53.594;10.034;2023-11-19T10:18:33;38.70;;;8.60;;
55037;SDS011;40937;53.594;10.034;2023-11-19T10:21:04;47.10;;;8.77;;
55037;SDS011;40937;53.594;10.034;2023-11-19T10:23:47;40.08;;;8.80;;
55037;SDS011;40937;53.594;10.034;2023-11-19T10:28:45;37.08;;;9.07;;
55037;SDS011;40937;53.594;10.034;2023-11-19T10:31:14;44.20;;;9.93;;
55037;SDS011;40937;53.594;10.034;2023-11-19T10:33:41;52.25;;;8.98;;
55037;SDS011;40937;53.594;10.034;2023-11-19T10:36:10;42.53;;;8.98;;
55037;SDS011;40937;53.594;10.034;2023-11-19T10:38:41;43.35;;;9.63;;
55037;SDS011;40937;53.594;10.034;2023-11-19T10:41:27;350.40;;;244.73;;
55037;SDS011;40937;53.594;10.034;2023-11-19T10:43:55;146.45;;;86.68;;
55037;SDS011;40937;53.594;10.034;2023-11-19T10:46:22;221.98;;;131.10;;
55037;SDS011;40937;53.594;10.034;2023-11-19T10:48:49;85.82;;;48.55;;
55037;SDS011;40937;53.594;10.034;2023-11-19T10:51:18;100.07;;;64.43;;
55037;SDS011;40937;53.594;10.034;2023-11-19T10:53:49;71.00;;;49.00;;
55037;SDS011;40937;53.594;10.034;2023-11-19T10:56:17;55.40;;;28.50;;
55037;SDS011;40937;53.594;10.034;2023-11-19T10:58:51;54.30;;;26.75;;
55037;SDS011;40937;53.594;10.034;2023-11-19T11:01:21;55.67;;;13.38;;
55037;SDS011;40937;53.594;10.034;2023-11-19T11:03:52;53.50;;;28.35;;
55037;SDS011;40937;53.594;10.034;2023-11-19T11:06:22;44.67;;;14.55;;
55037;SDS011;40937;53.594;10.034;2023-11-19T11:08:50;52.97;;;15.43;;
55037;SDS011;40937;53.594;10.034;2023-11-19T11:11:18;49.25;;;17.35;;
55037;SDS011;40937;53.594;10.034;2023-11-19T11:13:47;38.22;;;11.40;;
55037;SDS011;40937;53.594;10.034;2023-11-19T11:16:16;31.25;;;12.73;;
55037;SDS011;40937;53.594;10.034;2023-11-19T11:18:45;26.27;;;8.80;;
55037;SDS011;40937;53.594;10.034;2023-11-19T11:21:16;28.52;;;10.15;;
55037;SDS011;40937;53.594;10.034;2023-11-19T11:26:52;33.40;;;8.85;;
55037;SDS011;40937;53.594;10.034;2023-11-19T11:32:06;31.63;;;8.18;;
55037;SDS011;40937;53.594;10.034;2023-11-19T11:34:50;39.30;;;8.30;;
55037;SDS011;40937;53.594;10.034;2023-11-19T11:37:28;32.70;;;9.25;;
55037;SDS011;40937;53.594;10.034;2023-11-19T11:42:34;34.90;;;8.30;;
55037;SDS011;40937;53.594;10.034;2023-11-19T11:45:01;41.60;;;8.70;;
55037;SDS011;40937;53.594;10.034;2023-11-19T11:50:36;43.72;;;9.18;;
55037;SDS011;40937;53.594;10.034;2023-11-19T11:53:17;41.53;;;9.27;;
55037;SDS011;40937;53.594;10.034;2023-11-19T11:55:54;30.10;;;8.05;;
55037;SDS011;40937;53.594;10.034;2023-11-19T11:58:31;30.02;;;7.57;;
55037;SDS011;40937;53.594;10.034;2023-11-19T12:01:00;32.55;;;8.88;;
55037;SDS011;40937;53.594;10.034;2023-11-19T12:03:30;48.63;;;9.60;;
55037;SDS011;40937;53.594;10.034;2023-11-19T12:05:58;39.30;;;8.18;;
55037;SDS011;40937;53.594;10.034;2023-11-19T12:08:26;34.83;;;8.02;;
55037;SDS011;40937;53.594;10.034;2023-11-19T12:10:55;31.83;;;7.85;;
55037;SDS011;40937;53.594;10.034;2023-11-19T12:13:25;36.42;;;8.90;;
55037;SDS011;40937;53.594;10.034;2023-11-19T12:16:11;38.13;;;8.35;;
55037;SDS011;40937;53.594;10.034;2023-11-19T12:18:40;33.03;;;8.50;;
55037;SDS011;40937;53.594;10.034;2023-11-19T12:21:08;33.40;;;8.25;;
55037;SDS011;40937;53.594;10.034;2023-11-19T12:23:45;35.65;;;9.00;;
55037;SDS011;40937;53.594;10.034;2023-11-19T12:29:06;34.17;;;8.38;;
55037;SDS011;40937;53.594;10.034;2023-11-19T12:31:34;31.75;;;8.20;;
55037;SDS011;40937;53.594;10.034;2023-11-19T12:34:09;34.67;;;7.43;;
55037;SDS011;40937;53.594;10.034;2023-11-19T12:36:39;27.88;;;7.10;;
55037;SDS011;40937;53.594;10.034;2023-11-19T12:39:07;37.30;;;8.70;;
55037;SDS011;40937;53.594;10.034;2023-11-19T12:41:48;34.80;;;8.23;;
55037;SDS011;40937;53.594;10.034;2023-11-19T12:44:16;28.48;;;8.10;;
55037;SDS011;40937;53.594;10.034;2023-11-19T12:46:43;37.60;;;8.77;;
55037;SDS011;40937;53.594;10.034;2023-11-19T12:49:12;39.35;;;7.70;;
55037;SDS011;40937;53.594;10.034;2023-11-19T12:51:39;34.60;;;7.80;;
55037;SDS011;40937;53.594;10.034;2023-11-19T12:54:06;33.63;;;7.95;;
55037;SDS011;40937;53.594;10.034;2023-11-19T12:56:34;26.42;;;6.95;;
55037;SDS011;40937;53.594;10.034;2023-11-19T12:59:10;33.30;;;8.07;;
55037;SDS011;40937;53.594;10.034;2023-11-19T13:01:38;29.17;;;7.07;;
55037;SDS011;40937;53.594;10.034;2023-11-19T13:04:17;35.47;;;8.95;;
55037;SDS011;40937;53.594;10.034;2023-11-19T13:06:45;27.63;;;8.13;;
55037;SDS011;40937;53.594;10.034;2023-11-19T13:09:21;31.75;;;7.70;;
55037;SDS011;40937;53.594;10.034;2023-11-19T13:11:49;39.53;;;8.70;;
55037;SDS011;40937;53.594;10.034;2023-11-19T13:14:16;36.42;;;8.40;;
55037;SDS011;40937;53.594;10.034;2023-11-19T13:16:43;38.17;;;8.60;;
55037;SDS011;40937;53.594;10.034;2023-11-19T13:19:12;27.55;;;6.78;;
55037;SDS011;40937;53.594;10.034;2023-11-19T13:21:40;28.60;;;8.32;;
55037;SDS011;40937;53.594;10.034;2023-11-19T13:24:08;33.03;;;8.52;;
55037;SDS011;40937;53.594;10.034;2023-11-19T13:26:38;29.63;;;8.25;;
55037;SDS011;40937;53.594;10.034;2023-11-19T13:29:05;31.02;;;7.45;;
55037;SDS011;40937;53.594;10.034;2023-11-19T13:31:33;44.25;;;8.00;;
55037;SDS011;40937;53.594;10.034;2023-11-19T13:34:00;48.50;;;10.02;;
55037;SDS011;40937;53.594;10.034;2023-11-19T13:36:27;36.10;;;8.38;;
55037;SDS011;40937;53.594;10.034;2023-11-19T13:38:55;30.35;;;7.70;;
55037;SDS011;40937;53.594;10.034;2023-11-19T13:41:25;35.25;;;9.43;;
55037;SDS011;40937;53.594;10.034;2023-11-19T13:43:52;35.90;;;8.95;;
55037;SDS011;40937;53.594;10.034;2023-11-19T13:46:19;33.13;;;8.32;;
55037;SDS011;40937;53.594;10.034;2023-11-19T13:48:46;35.58;;;8.25;;
55037;SDS011;40937;53.594;10.034;2023-11-19T13:51:15;32.63;;;7.60;;
55037;SDS011;40937;53.594;10.034;2023-11-19T13:53:42;30.52;;;7.50;;
55037;SDS011;40937;53.594;10.034;2023-11-19T13:56:11;30.80;;;7.95;;
55037;SDS011;40937;53.594;10.034;2023-11-19T13:58:40;50.40;;;8.15;;
55037;SDS011;40937;53.594;10.034;2023-11-19T14:01:07;31.33;;;7.80;;
55037;SDS011;40937;53.594;10.034;2023-11-19T14:03:34;35.42;;;8.35;;
55037;SDS011;40937;53.594;10.034;2023-11-19T14:06:02;45.58;;;8.80;;
55037;SDS011;40937;53.594;10.034;2023-11-19T14:08:29;34.83;;;7.60;;
55037;SDS011;40937;53.594;10.034;2023-11-19T14:11:03;33.92;;;8.35;;
55037;SDS011;40937;53.594;10.034;2023-11-19T14:13:32;28.42;;;7.10;;
55037;SDS011;40937;53.594;10.034;2023-11-19T14:16:00;32.10;;;8.20;;
55037;SDS011;40937;53.594;10.034;2023-11-19T14:18:28;42.20;;;9.88;;
55037;SDS011;40937;53.594;10.034;2023-11-19T14:20:55;42.85;;;9.10;;
55037;SDS011;40937;53.594;10.034;2023-11-19T14:23:24;38.42;;;7.97;;
55037;SDS011;40937;53.594;10.034;2023-11-19T14:25:53;31.30;;;7.97;;
55037;SDS011;40937;53.594;10.034;2023-11-19T14:28:20;32.33;;;7.57;;
55037;SDS011;40937;53.594;10.034;2023-11-19T14:30:48;38.42;;;8.05;;
55037;SDS011;40937;53.594;10.034;2023-11-19T14:33:19;34.03;;;7.95;;
55037;SDS011;40937;53.594;10.034;2023-11-19T14:35:46;30.33;;;6.72;;
55037;SDS011;40937;53.594;10.034;2023-11-19T14:38:14;36.67;;;8.02;;
55037;SDS011;40937;53.594;10.034;2023-11-19T14:40:41;26.83;;;8.05;;
55037;SDS011;40937;53.594;10.034;2023-11-19T14:43:09;32.58;;;8.07;;
55037;SDS011;40937;53.594;10.034;2023-11-19T14:45:36;36.08;;;7.22;;
55037;SDS011;40937;53.594;10.034;2023-11-19T14:48:05;42.10;;;8.18;;
55037;SDS011;40937;53.594;10.034;2023-11-19T14:50:32;29.20;;;7.32;;
55037;SDS011;40937;53.594;10.034;2023-11-19T14:53:00;33.03;;;7.20;;